Terminal Aerodrome Forecast
Issued by NWS Sioux Falls, SD

Home | Current Version | Previous Version | Text Only | Print | Product List | Glossary On
Versions: 1 2 3 4 5 6 7 8 9 10 11 12 13
000
FTUS43 KFSD 220529
TAFHON
TAF
KHON 220529Z 2206/2306 VRB04KT P6SM SKC
     FM221100 17008KT P6SM FEW035 SCT200
     FM221600 16013G20KT P6SM BKN090
     FM222200 18006KT P6SM SKC=

USA.gov is the U.S. government's official web portal to all federal, state and local government web resources and services.